Time;durP1;ratioP1;P1;durP2;ratioP2;P2;SDS_P1;SDS_P2;PMS_P1;PMS_P2;Temp;Humidity;BMP_temperature;BMP_pressure;BME280_temperature;BME280_humidity;BME280_pressure;Samples;Min_cycle;Max_cycle;Signal;HPM_P1;HPM_P2
2022/06/12 00:00:33;;;;;;;;;;;;;;;;;;5060573;28;19924;-83
2022/06/12 00:02:59;;;;;;;;;;;;;;;;;;5058795;28;19943;-83
2022/06/12 00:05:25;;;;;;;;;;;;;;;;;;5076433;28;19924;-84
2022/06/12 00:07:54;;;;;;;;;;;;;;;;;;5057816;28;19947;-83
2022/06/12 00:10:20;;;;;;;;;;;;;;;;;;5079224;28;19924;-83
2022/06/12 00:12:45;;;;;;;;;;;;;;;;;;5063099;28;19928;-83
2022/06/12 00:15:11;;;;;;;;;;;;;;;;;;5063961;28;19923;-83
2022/06/12 00:17:38;;;;;;;;;;;;;;;;;;5080167;28;19930;-83
2022/06/12 00:20:04;;;;;;;;;;;;;;;;;;5061956;28;20436;-83
2022/06/12 00:22:30;;;;;;;;;;;;;;;;;;5056589;28;19928;-84
2022/06/12 00:24:56;;;;;;;;;;;;;;;;;;5078388;28;19963;-84
2022/06/12 00:27:22;;;;;;;;;;;;;;;;;;5076436;28;20386;-84
2022/06/12 00:29:50;;;;;;;;;;;;;;;;;;5062226;28;19930;-84
2022/06/12 00:32:16;;;;;;;;;;;;;;;;;;5074822;28;19959;-83
2022/06/12 00:34:42;;;;;;;;;;;;;;;;;;5068288;28;19967;-83
2022/06/12 00:37:07;;;;;;;;;;;;;;;;;;5062966;28;20375;-83
2022/06/12 00:39:33;;;;;;;;;;;;;;;;;;5059367;28;19928;-84
2022/06/12 00:41:59;;;;;;;;;;;;;;;;;;5078775;28;20358;-83
2022/06/12 00:44:25;;;;;;;;;;;;;;;;;;5065493;28;19923;-83
2022/06/12 00:46:51;;;;;;;;;;;;;;;;;;5061868;28;19997;-84
2022/06/12 00:49:17;;;;;;;;;;;;;;;;;;5057486;28;19947;-83
2022/06/12 00:51:43;;;;;;;;;;;;;;;;;;5060507;28;19928;-83
2022/06/12 00:54:09;;;;;;;;;;;;;;;;;;5061118;28;20436;-82
2022/06/12 00:56:35;;;;;;;;;;;;;;;;;;5061318;28;20409;-83
2022/06/12 00:59:02;;;;;;;;;;;;;;;;;;5081545;28;20022;-83
2022/06/12 01:01:28;;;;;;;;;;;;;;;;;;5080221;28;20443;-83
2022/06/12 01:06:38;;;;;;;;;;;;;;;;;;5080664;28;19932;-84
2022/06/12 01:09:04;;;;;;;;;;;;;;;;;;5064988;28;19924;-83
2022/06/12 01:11:30;;;;;;;;;;;;;;;;;;5079822;28;19924;-84
2022/06/12 01:13:56;;;;;;;;;;;;;;;;;;5061114;28;19989;-83
2022/06/12 01:16:22;;;;;;;;;;;;;;;;;;5065447;28;19924;-83
2022/06/12 01:18:48;;;;;;;;;;;;;;;;;;5061419;28;19924;-83
2022/06/12 01:21:14;;;;;;;;;;;;;;;;;;5079052;28;19928;-83
2022/06/12 01:23:42;;;;;;;;;;;;;;;;;;5076404;28;20389;-83
2022/06/12 01:26:08;;;;;;;;;;;;;;;;;;5084699;28;19928;-83
2022/06/12 01:28:34;;;;;;;;;;;;;;;;;;5078685;28;19956;-84
2022/06/12 01:31:00;;;;;;;;;;;;;;;;;;5078568;28;19975;-83
2022/06/12 01:33:26;;;;;;;;;;;;;;;;;;5061352;28;20320;-84
2022/06/12 01:35:52;;;;;;;;;;;;;;;;;;5079742;28;20363;-83
2022/06/12 01:38:18;;;;;;;;;;;;;;;;;;5075310;28;19953;-83
2022/06/12 01:40:44;;;;;;;;;;;;;;;;;;5058428;28;19970;-83
2022/06/12 01:43:10;;;;;;;;;;;;;;;;;;5075587;28;19928;-83
2022/06/12 01:45:36;;;;;;;;;;;;;;;;;;5067762;28;19955;-83
2022/06/12 01:48:02;;;;;;;;;;;;;;;;;;5076150;28;19931;-83
2022/06/12 01:50:28;;;;;;;;;;;;;;;;;;5078698;28;19946;-83
2022/06/12 01:52:54;;;;;;;;;;;;;;;;;;5081794;28;21097;-82
2022/06/12 01:55:20;;;;;;;;;;;;;;;;;;5075713;28;20014;-81
2022/06/12 01:57:45;;;;;;;;;;;;;;;;;;5098086;28;20351;-82
2022/06/12 02:00:11;;;;;;;;;;;;;;;;;;5063119;28;19963;-82
2022/06/12 02:02:37;;;;;;;;;;;;;;;;;;5096995;28;19931;-83
2022/06/12 02:05:03;;;;;;;;;;;;;;;;;;5064442;28;19932;-83
2022/06/12 02:07:29;;;;;;;;;;;;;;;;;;5062035;28;19985;-83
2022/06/12 02:09:55;;;;;;;;;;;;;;;;;;5057423;28;19927;-82
2022/06/12 02:15:06;;;;;;;;;;;;;;;;;;5080905;28;19963;-83
2022/06/12 02:17:32;;;;;;;;;;;;;;;;;;5062615;28;20343;-83
2022/06/12 02:19:58;;;;;;;;;;;;;;;;;;5078779;28;19924;-83
2022/06/12 02:22:24;;;;;;;;;;;;;;;;;;5082501;28;19924;-83
2022/06/12 02:24:50;;;;;;;;;;;;;;;;;;5079186;28;20291;-83
2022/06/12 02:27:16;;;;;;;;;;;;;;;;;;5082174;28;20439;-83
2022/06/12 02:29:42;;;;;;;;;;;;;;;;;;5060395;28;19986;-83
2022/06/12 02:32:08;;;;;;;;;;;;;;;;;;5067339;28;19935;-83
2022/06/12 02:34:34;;;;;;;;;;;;;;;;;;5065546;28;20370;-84
2022/06/12 02:37:00;;;;;;;;;;;;;;;;;;5060576;28;19924;-83
2022/06/12 02:39:26;;;;;;;;;;;;;;;;;;5080528;28;19923;-84
2022/06/12 02:41:52;;;;;;;;;;;;;;;;;;5085415;28;20015;-83
2022/06/12 02:44:17;;;;;;;;;;;;;;;;;;5085697;28;19928;-82
2022/06/12 02:46:44;;;;;;;;;;;;;;;;;;5068526;28;19935;-83
2022/06/12 02:49:10;;;;;;;;;;;;;;;;;;5082877;28;20384;-82
2022/06/12 02:51:35;;;;;;;;;;;;;;;;;;5079455;28;21409;-83
2022/06/12 02:54:01;;;;;;;;;;;;;;;;;;5082751;28;19930;-82
2022/06/12 02:56:27;;;;;;;;;;;;;;;;;;5064719;28;19983;-82
2022/06/12 02:58:53;;;;;;;;;;;;;;;;;;5062042;28;20416;-82
2022/06/12 03:01:19;;;;;;;;;;;;;;;;;;5080093;28;21248;-82
2022/06/12 03:03:45;;;;;;;;;;;;;;;;;;5058776;28;19938;-83
2022/06/12 03:06:11;;;;;;;;;;;;;;;;;;5065574;28;19923;-83
2022/06/12 03:08:37;;;;;;;;;;;;;;;;;;5082716;28;20416;-83
2022/06/12 03:11:03;;;;;;;;;;;;;;;;;;5064611;28;20074;-83
2022/06/12 03:13:29;;;;;;;;;;;;;;;;;;5081609;28;20061;-83
2022/06/12 03:15:56;;;;;;;;;;;;;;;;;;5082486;28;20386;-83
2022/06/12 03:18:22;;;;;;;;;;;;;;;;;;5063296;28;19928;-82
2022/06/12 03:20:48;;;;;;;;;;;;;;;;;;5064084;28;19928;-83
2022/06/12 03:23:14;;;;;;;;;;;;;;;;;;5060600;28;19931;-82
2022/06/12 03:25:40;;;;;;;;;;;;;;;;;;5064685;28;19974;-83
2022/06/12 03:28:06;;;;;;;;;;;;;;;;;;5065532;28;19923;-83
2022/06/12 03:30:32;;;;;;;;;;;;;;;;;;5077478;28;19969;-84
2022/06/12 03:32:58;;;;;;;;;;;;;;;;;;5068173;28;20414;-83
2022/06/12 03:35:25;;;;;;;;;;;;;;;;;;5059135;28;20282;-83
2022/06/12 03:37:51;;;;;;;;;;;;;;;;;;5060884;28;19924;-84
2022/06/12 03:40:17;;;;;;;;;;;;;;;;;;5060504;28;19932;-82
2022/06/12 03:42:43;;;;;;;;;;;;;;;;;;5081720;28;19939;-83
2022/06/12 03:45:09;;;;;;;;;;;;;;;;;;5063175;28;19942;-83
2022/06/12 03:47:35;;;;;;;;;;;;;;;;;;5078930;28;19932;-82
2022/06/12 03:50:01;;;;;;;;;;;;;;;;;;5078280;28;19928;-82
2022/06/12 03:52:26;;;;;;;;;;;;;;;;;;5084022;28;19963;-83
2022/06/12 03:54:52;;;;;;;;;;;;;;;;;;5094839;28;19924;-82
2022/06/12 04:00:03;;;;;;;;;;;;;;;;;;5077549;28;19966;-82
2022/06/12 04:02:29;;;;;;;;;;;;;;;;;;5079608;28;20402;-82
2022/06/12 04:04:55;;;;;;;;;;;;;;;;;;5083366;28;19953;-83
2022/06/12 04:07:21;;;;;;;;;;;;;;;;;;5076947;28;20014;-82
2022/06/12 04:09:47;;;;;;;;;;;;;;;;;;5081783;28;19994;-83
2022/06/12 04:12:13;;;;;;;;;;;;;;;;;;5072597;28;19962;-83
2022/06/12 04:14:39;;;;;;;;;;;;;;;;;;5102512;28;19935;-84
2022/06/12 04:17:05;;;;;;;;;;;;;;;;;;5078602;28;20026;-83
2022/06/12 04:19:30;;;;;;;;;;;;;;;;;;5081369;28;19923;-84
2022/06/12 04:21:59;;;;;;;;;;;;;;;;;;5080948;28;19939;-83
2022/06/12 04:24:25;;;;;;;;;;;;;;;;;;5082822;28;19932;-84
2022/06/12 04:26:51;;;;;;;;;;;;;;;;;;5076452;28;19924;-84
2022/06/12 04:29:17;;;;;;;;;;;;;;;;;;5077857;28;19924;-83
2022/06/12 04:31:43;;;;;;;;;;;;;;;;;;5074159;28;19927;-83
2022/06/12 04:34:09;;;;;;;;;;;;;;;;;;5077818;28;19928;-83
2022/06/12 04:36:35;;;;;;;;;;;;;;;;;;5066003;28;20032;-82
2022/06/12 04:39:01;;;;;;;;;;;;;;;;;;5064297;28;20018;-83
2022/06/12 04:41:27;;;;;;;;;;;;;;;;;;5061006;28;19932;-82
2022/06/12 04:43:53;;;;;;;;;;;;;;;;;;5077735;28;19971;-83
2022/06/12 04:46:19;;;;;;;;;;;;;;;;;;5061420;28;19935;-81
2022/06/12 04:48:45;;;;;;;;;;;;;;;;;;5077739;28;19924;-83
2022/06/12 04:51:11;;;;;;;;;;;;;;;;;;5084040;28;20010;-83
2022/06/12 04:53:37;;;;;;;;;;;;;;;;;;5065022;28;20378;-82
2022/06/12 04:56:03;;;;;;;;;;;;;;;;;;5081016;28;19928;-82
2022/06/12 04:58:29;;;;;;;;;;;;;;;;;;5077982;28;20298;-82
2022/06/12 05:00:55;;;;;;;;;;;;;;;;;;5078182;28;20682;-83
2022/06/12 05:03:21;;;;;;;;;;;;;;;;;;5060273;28;19924;-83
2022/06/12 05:05:47;;;;;;;;;;;;;;;;;;5078566;28;19932;-84
2022/06/12 05:08:13;;;;;;;;;;;;;;;;;;5078685;28;19927;-83
2022/06/12 05:10:39;;;;;;;;;;;;;;;;;;5080773;28;19928;-83
2022/06/12 05:13:05;;;;;;;;;;;;;;;;;;5078826;28;19998;-83
2022/06/12 05:15:31;;;;;;;;;;;;;;;;;;5077889;28;19928;-84
2022/06/12 05:17:57;;;;;;;;;;;;;;;;;;5075682;28;19950;-83
2022/06/12 05:20:23;;;;;;;;;;;;;;;;;;5065322;28;19931;-83
2022/06/12 05:22:49;;;;;;;;;;;;;;;;;;5079040;28;19927;-84
2022/06/12 05:25:15;;;;;;;;;;;;;;;;;;5064993;28;19924;-83
2022/06/12 05:27:41;;;;;;;;;;;;;;;;;;5060880;28;19939;-84
2022/06/12 05:30:07;;;;;;;;;;;;;;;;;;5058761;28;19931;-86
2022/06/12 05:32:33;;;;;;;;;;;;;;;;;;5067224;28;19924;-81
2022/06/12 05:34:59;;;;;;;;;;;;;;;;;;5080384;28;19928;-82
2022/06/12 05:37:25;;;;;;;;;;;;;;;;;;5079486;28;19924;-80
2022/06/12 05:39:51;;;;;;;;;;;;;;;;;;5063304;28;19951;-83
2022/06/12 05:42:17;;;;;;;;;;;;;;;;;;5065281;28;19920;-83
2022/06/12 05:44:43;;;;;;;;;;;;;;;;;;5057119;28;19925;-81
2022/06/12 05:47:09;;;;;;;;;;;;;;;;;;5093606;28;20018;-80
2022/06/12 05:49:35;;;;;;;;;;;;;;;;;;5078540;28;19928;-80
2022/06/12 05:52:01;;;;;;;;;;;;;;;;;;5071925;28;19928;-81
2022/06/12 05:54:27;;;;;;;;;;;;;;;;;;5101482;28;19924;-79
2022/06/12 05:56:53;;;;;;;;;;;;;;;;;;5092227;28;19955;-79
2022/06/12 05:59:19;;;;;;;;;;;;;;;;;;5065678;28;19932;-78
2022/06/12 06:01:45;;;;;;;;;;;;;;;;;;5085407;28;20014;-80
2022/06/12 06:04:10;;;;;;;;;;;;;;;;;;5080349;28;19974;-82
2022/06/12 06:06:36;;;;;;;;;;;;;;;;;;5104839;28;19981;-81
2022/06/12 06:09:02;;;;;;;;;;;;;;;;;;5087410;28;19927;-80
2022/06/12 06:11:28;;;;;;;;;;;;;;;;;;5082054;28;20010;-82
2022/06/12 06:13:54;;;;;;;;;;;;;;;;;;5101315;28;19971;-83
2022/06/12 06:16:20;;;;;;;;;;;;;;;;;;5066409;28;20314;-80
2022/06/12 06:18:46;;;;;;;;;;;;;;;;;;5092514;28;19934;-79
2022/06/12 06:21:14;;;;;;;;;;;;;;;;;;5063025;28;19932;-86
2022/06/12 06:23:40;;;;;;;;;;;;;;;;;;5064224;28;19932;-84
2022/06/12 06:26:06;;;;;;;;;;;;;;;;;;5061100;28;19924;-79
2022/06/12 06:28:32;;;;;;;;;;;;;;;;;;5065318;28;19928;-81
2022/06/12 06:30:58;;;;;;;;;;;;;;;;;;5078504;28;19969;-82
2022/06/12 06:33:24;;;;;;;;;;;;;;;;;;5065233;28;19927;-79
2022/06/12 06:35:49;;;;;;;;;;;;;;;;;;5061337;28;19931;-80
2022/06/12 06:38:15;;;;;;;;;;;;;;;;;;5097192;28;19966;-79
2022/06/12 06:40:42;;;;;;;;;;;;;;;;;;5105149;28;19931;-84
2022/06/12 06:43:08;;;;;;;;;;;;;;;;;;5083969;28;19947;-80
2022/06/12 06:48:19;;;;;;;;;;;;;;;;;;5081918;28;19935;-81
2022/06/12 06:50:45;;;;;;;;;;;;;;;;;;5072193;28;19939;-83
2022/06/12 06:53:11;;;;;;;;;;;;;;;;;;5091137;28;19927;-80
2022/06/12 06:55:37;;;;;;;;;;;;;;;;;;5078275;28;19931;-83
2022/06/12 06:58:03;;;;;;;;;;;;;;;;;;5079730;28;19924;-83
2022/06/12 07:00:29;;;;;;;;;;;;;;;;;;5083292;28;20385;-81
2022/06/12 07:02:55;;;;;;;;;;;;;;;;;;5063094;28;20440;-81
2022/06/12 07:05:21;;;;;;;;;;;;;;;;;;5077749;28;20373;-83
2022/06/12 07:07:47;;;;;;;;;;;;;;;;;;5083227;28;19942;-85
2022/06/12 07:10:13;;;;;;;;;;;;;;;;;;5074088;28;19941;-84
2022/06/12 07:12:39;;;;;;;;;;;;;;;;;;5086752;28;19927;-83
2022/06/12 07:15:05;;;;;;;;;;;;;;;;;;5100034;28;19931;-81
2022/06/12 07:17:31;;;;;;;;;;;;;;;;;;5078054;28;19924;-86
2022/06/12 07:19:57;;;;;;;;;;;;;;;;;;5079772;28;19931;-86
2022/06/12 07:22:23;;;;;;;;;;;;;;;;;;5081073;28;19924;-86
2022/06/12 07:24:49;;;;;;;;;;;;;;;;;;5080439;28;19928;-86
2022/06/12 07:27:15;;;;;;;;;;;;;;;;;;5073705;28;19930;-86
2022/06/12 07:29:41;;;;;;;;;;;;;;;;;;5068866;28;20058;-84
2022/06/12 07:32:07;;;;;;;;;;;;;;;;;;5060306;28;20371;-86
2022/06/12 07:34:33;;;;;;;;;;;;;;;;;;5078181;28;20023;-85
2022/06/12 07:36:59;;;;;;;;;;;;;;;;;;5086371;28;19928;-83
2022/06/12 07:39:25;;;;;;;;;;;;;;;;;;5078285;28;19950;-84
2022/06/12 07:41:51;;;;;;;;;;;;;;;;;;5078737;28;19934;-88
2022/06/12 07:44:19;;;;;;;;;;;;;;;;;;5063556;28;20352;-84
2022/06/12 07:46:45;;;;;;;;;;;;;;;;;;5062992;28;20352;-83
2022/06/12 07:49:11;;;;;;;;;;;;;;;;;;5083707;28;20070;-87
2022/06/12 07:51:37;;;;;;;;;;;;;;;;;;5080672;28;19923;-81
2022/06/12 07:54:03;;;;;;;;;;;;;;;;;;5086448;28;19924;-81
2022/06/12 07:56:29;;;;;;;;;;;;;;;;;;5088863;28;19928;-85
2022/06/12 07:58:55;;;;;;;;;;;;;;;;;;5076180;28;19925;-84
2022/06/12 08:01:21;;;;;;;;;;;;;;;;;;5091049;28;19984;-85
2022/06/12 08:03:46;;;;;;;;;;;;;;;;;;5060328;28;20375;-80
2022/06/12 08:06:12;;;;;;;;;;;;;;;;;;5105191;28;19964;-81
2022/06/12 08:08:38;;;;;;;;;;;;;;;;;;5079048;28;19924;-80
2022/06/12 08:11:04;;;;;;;;;;;;;;;;;;5076182;28;19924;-81
2022/06/12 08:13:30;;;;;;;;;;;;;;;;;;5080650;28;19985;-82
2022/06/12 08:15:57;;;;;;;;;;;;;;;;;;5058620;28;19924;-81
2022/06/12 08:18:23;;;;;;;;;;;;;;;;;;5074863;28;19974;-82
2022/06/12 08:20:50;;;;;;;;;;;;;;;;;;5092833;28;20394;-86
2022/06/12 08:23:26;;;;;;;;;;;;;;;;;;5070972;28;20392;-82
2022/06/12 08:25:52;;;;;;;;;;;;;;;;;;5082902;28;19928;-82
2022/06/12 08:28:18;;;;;;;;;;;;;;;;;;5081044;28;19928;-84
2022/06/12 08:30:44;;;;;;;;;;;;;;;;;;5065298;28;19928;-82
2022/06/12 08:33:09;;;;;;;;;;;;;;;;;;5093804;28;19928;-81
2022/06/12 08:35:36;;;;;;;;;;;;;;;;;;5077855;28;19928;-82
2022/06/12 08:38:02;;;;;;;;;;;;;;;;;;5072912;28;19924;-85
2022/06/12 08:40:28;;;;;;;;;;;;;;;;;;5077084;28;19924;-86
2022/06/12 08:42:54;;;;;;;;;;;;;;;;;;5073642;28;19930;-83
2022/06/12 08:45:21;;;;;;;;;;;;;;;;;;5063946;28;19966;-78
2022/06/12 08:47:47;;;;;;;;;;;;;;;;;;5069231;28;20335;-78
2022/06/12 08:50:13;;;;;;;;;;;;;;;;;;5089469;28;19959;-82
2022/06/12 08:52:39;;;;;;;;;;;;;;;;;;5088010;28;19927;-82
2022/06/12 08:55:05;;;;;;;;;;;;;;;;;;5078890;28;19924;-82
2022/06/12 08:57:31;;;;;;;;;;;;;;;;;;5082122;28;20335;-82
2022/06/12 08:59:57;;;;;;;;;;;;;;;;;;5063748;28;20299;-81
2022/06/12 09:02:23;;;;;;;;;;;;;;;;;;5101750;28;19924;-81
2022/06/12 09:04:49;;;;;;;;;;;;;;;;;;5082879;28;19927;-84
2022/06/12 09:07:15;;;;;;;;;;;;;;;;;;5077368;28;20365;-79
2022/06/12 09:09:41;;;;;;;;;;;;;;;;;;5084314;28;19947;-82
2022/06/12 09:12:07;;;;;;;;;;;;;;;;;;5062526;28;19924;-83
2022/06/12 09:14:33;;;;;;;;;;;;;;;;;;5083420;28;19931;-83
2022/06/12 09:16:59;;;;;;;;;;;;;;;;;;5077392;28;19932;-85
2022/06/12 09:19:25;;;;;;;;;;;;;;;;;;5080785;28;20006;-83
2022/06/12 09:21:51;;;;;;;;;;;;;;;;;;5067303;28;19931;-92
2022/06/12 09:24:17;;;;;;;;;;;;;;;;;;5066016;28;19924;-87
2022/06/12 09:26:43;;;;;;;;;;;;;;;;;;5076940;28;20260;-82
2022/06/12 09:29:09;;;;;;;;;;;;;;;;;;5076210;28;19975;-80
2022/06/12 09:31:35;;;;;;;;;;;;;;;;;;5077148;28;20020;-82
2022/06/12 09:34:01;;;;;;;;;;;;;;;;;;5082922;28;19923;-82
2022/06/12 09:36:27;;;;;;;;;;;;;;;;;;5069298;28;20322;-81
2022/06/12 09:38:53;;;;;;;;;;;;;;;;;;5071402;28;20251;-81
2022/06/12 09:41:19;;;;;;;;;;;;;;;;;;5072656;28;20044;-83
2022/06/12 09:43:45;;;;;;;;;;;;;;;;;;5086065;28;19982;-82
2022/06/12 09:46:11;;;;;;;;;;;;;;;;;;5084535;28;20379;-80
2022/06/12 09:48:37;;;;;;;;;;;;;;;;;;5083361;28;20394;-82
2022/06/12 09:51:03;;;;;;;;;;;;;;;;;;5084455;28;19966;-82
2022/06/12 09:53:28;;;;;;;;;;;;;;;;;;5096980;28;19924;-82
2022/06/12 09:55:54;;;;;;;;;;;;;;;;;;5083792;28;19936;-82
2022/06/12 09:58:21;;;;;;;;;;;;;;;;;;5084023;28;20468;-81
2022/06/12 10:00:46;;;;;;;;;;;;;;;;;;5083528;28;19928;-81
2022/06/12 10:03:13;;;;;;;;;;;;;;;;;;5075501;28;19973;-82
2022/06/12 10:05:40;;;;;;;;;;;;;;;;;;5081102;28;20445;-81
2022/06/12 10:08:06;;;;;;;;;;;;;;;;;;5079459;28;19947;-81
2022/06/12 10:10:32;;;;;;;;;;;;;;;;;;5064034;28;20692;-82
2022/06/12 10:12:58;;;;;;;;;;;;;;;;;;5064417;28;20420;-86
2022/06/12 10:15:24;;;;;;;;;;;;;;;;;;5066789;28;20329;-83
2022/06/12 10:17:51;;;;;;;;;;;;;;;;;;5061291;28;20363;-81
2022/06/12 10:20:17;;;;;;;;;;;;;;;;;;5084426;28;19923;-81
2022/06/12 10:22:43;;;;;;;;;;;;;;;;;;5083688;28;19934;-81
2022/06/12 10:25:09;;;;;;;;;;;;;;;;;;5083779;28;19951;-82
2022/06/12 10:27:35;;;;;;;;;;;;;;;;;;5083385;28;19924;-82
2022/06/12 10:30:01;;;;;;;;;;;;;;;;;;5083117;28;19932;-81
2022/06/12 10:32:27;;;;;;;;;;;;;;;;;;5068680;28;19924;-82
2022/06/12 10:34:56;;;;;;;;;;;;;;;;;;5063105;28;19924;-81
2022/06/12 10:37:22;;;;;;;;;;;;;;;;;;5081486;28;20460;-83
2022/06/12 10:39:48;;;;;;;;;;;;;;;;;;5106872;28;19931;-83
2022/06/12 10:42:14;;;;;;;;;;;;;;;;;;5077861;28;19970;-82
2022/06/12 10:44:40;;;;;;;;;;;;;;;;;;5076321;28;19924;-86
2022/06/12 10:47:06;;;;;;;;;;;;;;;;;;5067601;28;19990;-83
2022/06/12 10:49:32;;;;;;;;;;;;;;;;;;5082716;28;19971;-86
2022/06/12 10:51:58;;;;;;;;;;;;;;;;;;5062821;28;19949;-85
2022/06/12 10:54:24;;;;;;;;;;;;;;;;;;5058779;28;19950;-87
2022/06/12 10:56:50;;;;;;;;;;;;;;;;;;5066796;28;19928;-81
2022/06/12 10:59:16;;;;;;;;;;;;;;;;;;5076627;28;19967;-80
2022/06/12 11:01:42;;;;;;;;;;;;;;;;;;5101099;28;20007;-80
2022/06/12 11:04:08;;;;;;;;;;;;;;;;;;5085991;28;19963;-80
2022/06/12 11:06:34;;;;;;;;;;;;;;;;;;5100885;28;19928;-81
2022/06/12 11:09:00;;;;;;;;;;;;;;;;;;5086249;28;20306;-80
2022/06/12 11:11:26;;;;;;;;;;;;;;;;;;5096986;28;19932;-80
2022/06/12 11:13:52;;;;;;;;;;;;;;;;;;5085126;28;19931;-80
2022/06/12 11:16:18;;;;;;;;;;;;;;;;;;5099986;28;19936;-81
2022/06/12 11:18:44;;;;;;;;;;;;;;;;;;5084261;28;20367;-80
2022/06/12 11:21:10;;;;;;;;;;;;;;;;;;5105898;28;19928;-81
2022/06/12 11:23:36;;;;;;;;;;;;;;;;;;5084383;28;19924;-81
2022/06/12 11:26:02;;;;;;;;;;;;;;;;;;5083957;28;20439;-81
2022/06/12 11:28:28;;;;;;;;;;;;;;;;;;5075348;28;19947;-82
2022/06/12 11:30:54;;;;;;;;;;;;;;;;;;5082630;28;19924;-84
2022/06/12 11:33:20;;;;;;;;;;;;;;;;;;5062543;28;19924;-80
2022/06/12 11:35:46;;;;;;;;;;;;;;;;;;5097124;28;19923;-80
2022/06/12 11:38:12;;;;;;;;;;;;;;;;;;5075451;28;19939;-79
2022/06/12 11:40:38;;;;;;;;;;;;;;;;;;5084795;28;19993;-79
2022/06/12 11:43:04;;;;;;;;;;;;;;;;;;5076008;28;19924;-79
2022/06/12 11:45:30;;;;;;;;;;;;;;;;;;5080093;28;19985;-79
2022/06/12 11:47:56;;;;;;;;;;;;;;;;;;5074654;28;20052;-80
2022/06/12 11:50:22;;;;;;;;;;;;;;;;;;5064788;28;19931;-81
2022/06/12 11:52:48;;;;;;;;;;;;;;;;;;5074454;28;19924;-81
2022/06/12 11:55:14;;;;;;;;;;;;;;;;;;5081979;28;19973;-81
2022/06/12 11:57:40;;;;;;;;;;;;;;;;;;5075826;28;19928;-81
2022/06/12 12:00:06;;;;;;;;;;;;;;;;;;5081403;28;19924;-83
2022/06/12 12:02:32;;;;;;;;;;;;;;;;;;5085955;28;19932;-84
2022/06/12 12:04:58;;;;;;;;;;;;;;;;;;5087286;28;19931;-85
2022/06/12 12:07:27;;;;;;;;;;;;;;;;;;5061966;28;20279;-79
2022/06/12 12:09:52;;;;;;;;;;;;;;;;;;5078180;28;20006;-80
2022/06/12 12:12:18;;;;;;;;;;;;;;;;;;5102170;28;20023;-82
2022/06/12 12:14:44;;;;;;;;;;;;;;;;;;5078726;28;19986;-80
2022/06/12 12:17:10;;;;;;;;;;;;;;;;;;5098350;28;19924;-79
2022/06/12 12:19:36;;;;;;;;;;;;;;;;;;5082400;28;19931;-79
2022/06/12 12:22:02;;;;;;;;;;;;;;;;;;5077156;28;19923;-80
2022/06/12 12:24:28;;;;;;;;;;;;;;;;;;5079660;28;19938;-80
2022/06/12 12:26:54;;;;;;;;;;;;;;;;;;5095538;28;19931;-80
2022/06/12 12:29:20;;;;;;;;;;;;;;;;;;5078915;28;19928;-79
2022/06/12 12:31:46;;;;;;;;;;;;;;;;;;5063251;28;20046;-79
2022/06/12 12:34:12;;;;;;;;;;;;;;;;;;5091039;28;19923;-79
2022/06/12 12:42:08;;;;;;;;;;;;;;;;;;5082493;28;19931;-83
2022/06/12 12:44:33;;;;;;;;;;;;;;;;;;5074598;28;19924;-80
2022/06/12 12:46:59;;;;;;;;;;;;;;;;;;5080967;28;19974;-80
2022/06/12 12:49:25;;;;;;;;;;;;;;;;;;5073620;28;19930;-79
2022/06/12 12:51:51;;;;;;;;;;;;;;;;;;5075669;28;19959;-80
2022/06/12 12:54:18;;;;;;;;;;;;;;;;;;5078684;28;19962;-80
2022/06/12 12:56:44;;;;;;;;;;;;;;;;;;5078836;28;19934;-81
2022/06/12 12:59:10;;;;;;;;;;;;;;;;;;5087543;28;19928;-79
2022/06/12 13:01:36;;;;;;;;;;;;;;;;;;5084525;28;19956;-80
2022/06/12 13:04:02;;;;;;;;;;;;;;;;;;5081754;28;19966;-80
2022/06/12 13:06:28;;;;;;;;;;;;;;;;;;5083770;28;19924;-80
2022/06/12 13:08:53;;;;;;;;;;;;;;;;;;5077576;28;19932;-79
2022/06/12 13:11:19;;;;;;;;;;;;;;;;;;5085023;28;19928;-79
2022/06/12 13:13:45;;;;;;;;;;;;;;;;;;5076133;28;19932;-80
2022/06/12 13:16:11;;;;;;;;;;;;;;;;;;5085580;28;19924;-80
2022/06/12 13:18:37;;;;;;;;;;;;;;;;;;5081842;28;19930;-80
2022/06/12 13:21:04;;;;;;;;;;;;;;;;;;5083933;28;19961;-79
2022/06/12 13:23:30;;;;;;;;;;;;;;;;;;5081602;28;19936;-80
2022/06/12 13:25:56;;;;;;;;;;;;;;;;;;5104547;28;19924;-78
2022/06/12 13:28:22;;;;;;;;;;;;;;;;;;5077684;28;19925;-79
2022/06/12 13:30:48;;;;;;;;;;;;;;;;;;5080366;28;19928;-79
2022/06/12 13:33:14;;;;;;;;;;;;;;;;;;5097484;28;19931;-79
2022/06/12 13:35:40;;;;;;;;;;;;;;;;;;5090630;28;19924;-80
2022/06/12 13:38:06;;;;;;;;;;;;;;;;;;5082208;28;19924;-79
2022/06/12 13:40:32;;;;;;;;;;;;;;;;;;5095313;28;19924;-78
2022/06/12 13:42:58;;;;;;;;;;;;;;;;;;5078445;28;19927;-79
2022/06/12 13:45:24;;;;;;;;;;;;;;;;;;5083245;28;19989;-78
2022/06/12 13:47:50;;;;;;;;;;;;;;;;;;5061338;28;19928;-78
2022/06/12 13:50:16;;;;;;;;;;;;;;;;;;5090871;28;19951;-78
2022/06/12 13:52:42;;;;;;;;;;;;;;;;;;5086359;28;20287;-78
2022/06/12 13:55:08;;;;;;;;;;;;;;;;;;5098337;28;19949;-78
2022/06/12 13:57:34;;;;;;;;;;;;;;;;;;5079497;28;20391;-78
2022/06/12 13:59:59;;;;;;;;;;;;;;;;;;5073020;28;20294;-78
2022/06/12 14:02:25;;;;;;;;;;;;;;;;;;5085819;28;19931;-78
2022/06/12 14:04:51;;;;;;;;;;;;;;;;;;5077387;28;19927;-78
2022/06/12 14:07:17;;;;;;;;;;;;;;;;;;5063336;28;19924;-78
2022/06/12 14:09:43;;;;;;;;;;;;;;;;;;5082519;28;19935;-78
2022/06/12 14:12:09;;;;;;;;;;;;;;;;;;5072865;28;20390;-78
2022/06/12 14:14:35;;;;;;;;;;;;;;;;;;5073726;28;19928;-78
2022/06/12 14:17:01;;;;;;;;;;;;;;;;;;5077245;28;19971;-77
2022/06/12 14:19:27;;;;;;;;;;;;;;;;;;5082351;28;20462;-78
2022/06/12 14:21:53;;;;;;;;;;;;;;;;;;5076554;28;20286;-78
2022/06/12 14:24:19;;;;;;;;;;;;;;;;;;5077436;28;20222;-78
2022/06/12 14:26:45;;;;;;;;;;;;;;;;;;5068036;28;19923;-77
2022/06/12 14:29:11;;;;;;;;;;;;;;;;;;5059976;28;19950;-77
2022/06/12 14:31:38;;;;;;;;;;;;;;;;;;5078091;28;20375;-77
2022/06/12 14:34:04;;;;;;;;;;;;;;;;;;5087641;28;19924;-78
2022/06/12 14:36:30;;;;;;;;;;;;;;;;;;5069349;28;19935;-79
2022/06/12 14:38:56;;;;;;;;;;;;;;;;;;5088366;28;19957;-77
2022/06/12 14:41:22;;;;;;;;;;;;;;;;;;5086456;28;19923;-79
2022/06/12 14:43:48;;;;;;;;;;;;;;;;;;5101948;28;19931;-79
2022/06/12 14:46:14;;;;;;;;;;;;;;;;;;5091245;28;19924;-81
2022/06/12 14:48:41;;;;;;;;;;;;;;;;;;5086907;28;19932;-78
2022/06/12 14:51:06;;;;;;;;;;;;;;;;;;5081336;28;19985;-80
2022/06/12 14:53:32;;;;;;;;;;;;;;;;;;5069806;28;19928;-77
2022/06/12 14:55:58;;;;;;;;;;;;;;;;;;5075199;28;20081;-77
2022/06/12 14:58:25;;;;;;;;;;;;;;;;;;5065496;28;19931;-77
2022/06/12 15:00:51;;;;;;;;;;;;;;;;;;5088546;28;19931;-82
2022/06/12 15:03:17;;;;;;;;;;;;;;;;;;5079829;28;19924;-78
2022/06/12 15:05:43;;;;;;;;;;;;;;;;;;5088486;28;19924;-78
2022/06/12 15:08:09;;;;;;;;;;;;;;;;;;5076170;28;19924;-78
2022/06/12 15:10:35;;;;;;;;;;;;;;;;;;5062252;28;19935;-78
2022/06/12 15:13:00;;;;;;;;;;;;;;;;;;5080616;28;19924;-79
2022/06/12 15:15:26;;;;;;;;;;;;;;;;;;5081697;28;20286;-78
2022/06/12 15:17:52;;;;;;;;;;;;;;;;;;5103171;28;20299;-79
2022/06/12 15:20:18;;;;;;;;;;;;;;;;;;5079552;28;19932;-79
2022/06/12 15:22:44;;;;;;;;;;;;;;;;;;5085863;28;19932;-76
2022/06/12 15:25:10;;;;;;;;;;;;;;;;;;5079143;28;19923;-76
2022/06/12 15:30:21;;;;;;;;;;;;;;;;;;5081410;28;19973;-76
2022/06/12 15:32:47;;;;;;;;;;;;;;;;;;5101931;28;19932;-79
2022/06/12 15:35:13;;;;;;;;;;;;;;;;;;5093255;28;20006;-78
2022/06/12 15:37:39;;;;;;;;;;;;;;;;;;5100472;28;19927;-80
2022/06/12 15:40:04;;;;;;;;;;;;;;;;;;5106685;27;19924;-76
2022/06/12 15:42:30;;;;;;;;;;;;;;;;;;5081279;28;19931;-77
2022/06/12 15:44:56;;;;;;;;;;;;;;;;;;5079831;28;19939;-77
2022/06/12 15:47:22;;;;;;;;;;;;;;;;;;5099551;28;19992;-75
2022/06/12 15:49:48;;;;;;;;;;;;;;;;;;5077612;28;19985;-74
2022/06/12 15:52:14;;;;;;;;;;;;;;;;;;5083375;28;20371;-75
2022/06/12 15:54:40;;;;;;;;;;;;;;;;;;5083449;28;20009;-78
2022/06/12 15:57:08;;;;;;;;;;;;;;;;;;5101410;28;19924;-75
2022/06/12 15:59:34;;;;;;;;;;;;;;;;;;5078663;28;19969;-75
2022/06/12 16:02:00;;;;;;;;;;;;;;;;;;5095423;28;19927;-76
2022/06/12 16:04:26;;;;;;;;;;;;;;;;;;5083158;28;19932;-77
2022/06/12 16:06:52;;;;;;;;;;;;;;;;;;5099242;28;20383;-75
2022/06/12 16:09:18;;;;;;;;;;;;;;;;;;5099635;28;19999;-75
2022/06/12 16:11:44;;;;;;;;;;;;;;;;;;5099323;28;19935;-77
2022/06/12 16:14:10;;;;;;;;;;;;;;;;;;5095398;28;20260;-74
2022/06/12 16:16:36;;;;;;;;;;;;;;;;;;5078444;28;19942;-74
2022/06/12 16:19:02;;;;;;;;;;;;;;;;;;5094988;28;20370;-74
2022/06/12 16:21:28;;;;;;;;;;;;;;;;;;5076268;28;20390;-74
2022/06/12 16:23:54;;;;;;;;;;;;;;;;;;5089709;28;19947;-74
2022/06/12 16:26:20;;;;;;;;;;;;;;;;;;5092895;28;19990;-73
2022/06/12 16:28:49;;;;;;;;;;;;;;;;;;5070805;28;20041;-74
2022/06/12 16:31:15;;;;;;;;;;;;;;;;;;5076506;28;20018;-74
2022/06/12 16:33:41;;;;;;;;;;;;;;;;;;5076854;28;19924;-76
2022/06/12 16:36:07;;;;;;;;;;;;;;;;;;5099958;28;19931;-75
2022/06/12 16:38:33;;;;;;;;;;;;;;;;;;5095015;28;20064;-81
2022/06/12 16:40:59;;;;;;;;;;;;;;;;;;5092945;28;19940;-83
2022/06/12 16:43:25;;;;;;;;;;;;;;;;;;5082711;28;19924;-79
2022/06/12 16:45:51;;;;;;;;;;;;;;;;;;5081102;28;20374;-76
2022/06/12 16:48:17;;;;;;;;;;;;;;;;;;5086748;28;19924;-83
2022/06/12 16:50:43;;;;;;;;;;;;;;;;;;5082467;28;19924;-77
2022/06/12 16:53:09;;;;;;;;;;;;;;;;;;5077358;28;19931;-76
2022/06/12 16:55:35;;;;;;;;;;;;;;;;;;5098071;28;19924;-78